sensor_id;sensor_type;location;lat;lon;timestamp;P1;durP1;ratioP1;P2;durP2;ratioP2
27293;SDS011;14785;52.556;13.430;2023-08-07T00:00:34;10.30;;;9.52;;
27293;SDS011;14785;52.556;13.430;2023-08-07T00:02:59;14.70;;;9.17;;
27293;SDS011;14785;52.556;13.430;2023-08-07T00:05:25;10.67;;;9.97;;
27293;SDS011;14785;52.556;13.430;2023-08-07T00:07:51;10.80;;;10.05;;
27293;SDS011;14785;52.556;13.430;2023-08-07T00:10:16;11.82;;;10.65;;
27293;SDS011;14785;52.556;13.430;2023-08-07T00:12:42;11.80;;;10.83;;
27293;SDS011;14785;52.556;13.430;2023-08-07T00:15:08;11.43;;;10.53;;
27293;SDS011;14785;52.556;13.430;2023-08-07T00:17:34;9.45;;;8.65;;
27293;SDS011;14785;52.556;13.430;2023-08-07T00:20:01;9.07;;;8.38;;
27293;SDS011;14785;52.556;13.430;2023-08-07T00:22:26;8.83;;;7.97;;
27293;SDS011;14785;52.556;13.430;2023-08-07T00:24:52;35.00;;;32.97;;
27293;SDS011;14785;52.556;13.430;2023-08-07T00:27:17;26.90;;;24.93;;
27293;SDS011;14785;52.556;13.430;2023-08-07T00:29:43;17.37;;;15.97;;
27293;SDS011;14785;52.556;13.430;2023-08-07T00:32:08;12.10;;;11.07;;
27293;SDS011;14785;52.556;13.430;2023-08-07T00:34:34;23.27;;;21.87;;
27293;SDS011;14785;52.556;13.430;2023-08-07T00:36:59;16.43;;;15.03;;
27293;SDS011;14785;52.556;13.430;2023-08-07T00:39:25;13.90;;;12.97;;
27293;SDS011;14785;52.556;13.430;2023-08-07T00:41:50;13.33;;;12.20;;
27293;SDS011;14785;52.556;13.430;2023-08-07T00:44:16;18.80;;;17.27;;
27293;SDS011;14785;52.556;13.430;2023-08-07T00:46:41;11.07;;;10.03;;
27293;SDS011;14785;52.556;13.430;2023-08-07T00:49:07;10.55;;;9.70;;
27293;SDS011;14785;52.556;13.430;2023-08-07T00:51:37;9.35;;;8.65;;
27293;SDS011;14785;52.556;13.430;2023-08-07T00:54:05;12.32;;;11.45;;
27293;SDS011;14785;52.556;13.430;2023-08-07T00:56:34;15.68;;;14.52;;
27293;SDS011;14785;52.556;13.430;2023-08-07T00:59:00;15.30;;;14.20;;
27293;SDS011;14785;52.556;13.430;2023-08-07T01:01:26;11.82;;;10.65;;
27293;SDS011;14785;52.556;13.430;2023-08-07T01:03:52;13.32;;;10.40;;
27293;SDS011;14785;52.556;13.430;2023-08-07T01:06:17;12.03;;;11.23;;
27293;SDS011;14785;52.556;13.430;2023-08-07T01:08:43;11.33;;;10.33;;
27293;SDS011;14785;52.556;13.430;2023-08-07T01:17:06;12.57;;;8.93;;
27293;SDS011;14785;52.556;13.430;2023-08-07T01:19:35;9.65;;;8.65;;
27293;SDS011;14785;52.556;13.430;2023-08-07T01:24:36;10.98;;;10.07;;
27293;SDS011;14785;52.556;13.430;2023-08-07T01:27:24;14.45;;;13.23;;
27293;SDS011;14785;52.556;13.430;2023-08-07T01:35:36;17.55;;;15.68;;
27293;SDS011;14785;52.556;13.430;2023-08-07T01:38:08;18.25;;;16.88;;
27293;SDS011;14785;52.556;13.430;2023-08-07T01:40:35;16.15;;;14.95;;
27293;SDS011;14785;52.556;13.430;2023-08-07T01:43:03;19.00;;;17.60;;
27293;SDS011;14785;52.556;13.430;2023-08-07T01:45:29;15.23;;;12.60;;
27293;SDS011;14785;52.556;13.430;2023-08-07T01:47:56;15.38;;;13.93;;
27293;SDS011;14785;52.556;13.430;2023-08-07T01:50:22;15.23;;;14.17;;
27293;SDS011;14785;52.556;13.430;2023-08-07T01:52:49;16.77;;;15.40;;
27293;SDS011;14785;52.556;13.430;2023-08-07T01:55:18;14.53;;;13.27;;
27293;SDS011;14785;52.556;13.430;2023-08-07T01:57:44;16.23;;;14.68;;
27293;SDS011;14785;52.556;13.430;2023-08-07T02:00:09;14.00;;;12.87;;
27293;SDS011;14785;52.556;13.430;2023-08-07T02:02:36;13.90;;;12.90;;
27293;SDS011;14785;52.556;13.430;2023-08-07T02:05:02;14.85;;;13.35;;
27293;SDS011;14785;52.556;13.430;2023-08-07T02:07:29;18.45;;;16.95;;
27293;SDS011;14785;52.556;13.430;2023-08-07T02:09:54;18.38;;;17.00;;
27293;SDS011;14785;52.556;13.430;2023-08-07T02:12:20;20.53;;;18.73;;
27293;SDS011;14785;52.556;13.430;2023-08-07T02:14:45;18.60;;;17.03;;
27293;SDS011;14785;52.556;13.430;2023-08-07T02:17:10;20.63;;;19.03;;
27293;SDS011;14785;52.556;13.430;2023-08-07T02:19:36;20.33;;;18.83;;
27293;SDS011;14785;52.556;13.430;2023-08-07T02:22:02;16.83;;;15.70;;
27293;SDS011;14785;52.556;13.430;2023-08-07T02:24:29;14.05;;;12.95;;
27293;SDS011;14785;52.556;13.430;2023-08-07T02:29:20;14.13;;;12.95;;
27293;SDS011;14785;52.556;13.430;2023-08-07T02:31:46;14.87;;;13.07;;
27293;SDS011;14785;52.556;13.430;2023-08-07T02:34:12;9.90;;;8.98;;
27293;SDS011;14785;52.556;13.430;2023-08-07T02:36:38;18.25;;;16.90;;
27293;SDS011;14785;52.556;13.430;2023-08-07T02:39:04;20.43;;;15.27;;
27293;SDS011;14785;52.556;13.430;2023-08-07T02:41:29;14.90;;;13.70;;
27293;SDS011;14785;52.556;13.430;2023-08-07T02:46:21;12.23;;;10.80;;
27293;SDS011;14785;52.556;13.430;2023-08-07T02:48:46;35.57;;;33.03;;
27293;SDS011;14785;52.556;13.430;2023-08-07T02:51:12;11.80;;;9.87;;
27293;SDS011;14785;52.556;13.430;2023-08-07T02:53:37;19.53;;;17.70;;
27293;SDS011;14785;52.556;13.430;2023-08-07T02:56:02;19.23;;;17.80;;
27293;SDS011;14785;52.556;13.430;2023-08-07T02:58:28;14.50;;;13.13;;
27293;SDS011;14785;52.556;13.430;2023-08-07T03:00:53;13.40;;;12.07;;
27293;SDS011;14785;52.556;13.430;2023-08-07T03:03:19;18.07;;;16.47;;
27293;SDS011;14785;52.556;13.430;2023-08-07T03:05:51;13.07;;;11.77;;
27293;SDS011;14785;52.556;13.430;2023-08-07T03:08:17;28.88;;;26.75;;
27293;SDS011;14785;52.556;13.430;2023-08-07T03:10:49;20.07;;;18.00;;
27293;SDS011;14785;52.556;13.430;2023-08-07T03:13:17;14.57;;;13.18;;
27293;SDS011;14785;52.556;13.430;2023-08-07T03:15:42;17.40;;;15.23;;
27293;SDS011;14785;52.556;13.430;2023-08-07T03:18:08;21.33;;;19.43;;
27293;SDS011;14785;52.556;13.430;2023-08-07T03:20:35;28.03;;;25.87;;
27293;SDS011;14785;52.556;13.430;2023-08-07T03:23:02;16.20;;;13.73;;
27293;SDS011;14785;52.556;13.430;2023-08-07T03:25:27;14.50;;;13.00;;
27293;SDS011;14785;52.556;13.430;2023-08-07T03:27:52;15.27;;;12.30;;
27293;SDS011;14785;52.556;13.430;2023-08-07T03:30:18;14.93;;;13.53;;
27293;SDS011;14785;52.556;13.430;2023-08-07T03:32:43;13.67;;;12.37;;
27293;SDS011;14785;52.556;13.430;2023-08-07T03:35:09;16.57;;;15.07;;
27293;SDS011;14785;52.556;13.430;2023-08-07T03:37:34;14.67;;;13.17;;
27293;SDS011;14785;52.556;13.430;2023-08-07T03:39:59;14.27;;;12.93;;
27293;SDS011;14785;52.556;13.430;2023-08-07T03:42:25;19.60;;;17.77;;
27293;SDS011;14785;52.556;13.430;2023-08-07T03:44:50;19.50;;;18.00;;
27293;SDS011;14785;52.556;13.430;2023-08-07T03:47:16;22.40;;;20.63;;
27293;SDS011;14785;52.556;13.430;2023-08-07T03:49:41;20.17;;;18.33;;
27293;SDS011;14785;52.556;13.430;2023-08-07T03:52:08;17.67;;;16.13;;
27293;SDS011;14785;52.556;13.430;2023-08-07T03:54:35;18.42;;;16.70;;
27293;SDS011;14785;52.556;13.430;2023-08-07T03:57:00;15.53;;;13.50;;
27293;SDS011;14785;52.556;13.430;2023-08-07T03:59:27;14.50;;;13.15;;
27293;SDS011;14785;52.556;13.430;2023-08-07T04:01:52;17.27;;;15.53;;
27293;SDS011;14785;52.556;13.430;2023-08-07T04:04:18;17.63;;;15.87;;
27293;SDS011;14785;52.556;13.430;2023-08-07T04:06:44;18.27;;;16.70;;
27293;SDS011;14785;52.556;13.430;2023-08-07T04:09:10;21.47;;;19.60;;
27293;SDS011;14785;52.556;13.430;2023-08-07T04:11:35;29.27;;;26.83;;
27293;SDS011;14785;52.556;13.430;2023-08-07T04:14:01;24.45;;;22.45;;
27293;SDS011;14785;52.556;13.430;2023-08-07T04:16:27;21.98;;;20.10;;
27293;SDS011;14785;52.556;13.430;2023-08-07T04:18:52;28.27;;;26.00;;
27293;SDS011;14785;52.556;13.430;2023-08-07T04:21:19;23.42;;;21.65;;
27293;SDS011;14785;52.556;13.430;2023-08-07T04:23:46;21.00;;;18.52;;
27293;SDS011;14785;52.556;13.430;2023-08-07T04:26:11;20.43;;;18.77;;
27293;SDS011;14785;52.556;13.430;2023-08-07T04:28:39;18.48;;;15.88;;
27293;SDS011;14785;52.556;13.430;2023-08-07T04:31:05;17.17;;;15.57;;
27293;SDS011;14785;52.556;13.430;2023-08-07T04:33:31;17.73;;;16.27;;
27293;SDS011;14785;52.556;13.430;2023-08-07T04:35:56;21.67;;;19.77;;
27293;SDS011;14785;52.556;13.430;2023-08-07T04:38:21;19.80;;;17.93;;
27293;SDS011;14785;52.556;13.430;2023-08-07T04:40:47;22.43;;;20.73;;
27293;SDS011;14785;52.556;13.430;2023-08-07T04:43:14;21.52;;;19.67;;
27293;SDS011;14785;52.556;13.430;2023-08-07T04:45:42;15.32;;;13.95;;
27293;SDS011;14785;52.556;13.430;2023-08-07T04:48:10;16.75;;;13.98;;
27293;SDS011;14785;52.556;13.430;2023-08-07T04:50:39;14.63;;;13.10;;
27293;SDS011;14785;52.556;13.430;2023-08-07T04:53:05;14.88;;;13.52;;
27293;SDS011;14785;52.556;13.430;2023-08-07T04:55:30;13.87;;;12.57;;
27293;SDS011;14785;52.556;13.430;2023-08-07T04:57:56;14.07;;;12.98;;
27293;SDS011;14785;52.556;13.430;2023-08-07T05:00:22;15.37;;;13.73;;
27293;SDS011;14785;52.556;13.430;2023-08-07T05:02:48;12.95;;;11.73;;
27293;SDS011;14785;52.556;13.430;2023-08-07T05:05:14;12.43;;;11.30;;
27293;SDS011;14785;52.556;13.430;2023-08-07T05:07:40;27.23;;;25.02;;
27293;SDS011;14785;52.556;13.430;2023-08-07T05:10:06;45.47;;;42.20;;
27293;SDS011;14785;52.556;13.430;2023-08-07T05:12:32;28.67;;;26.40;;
27293;SDS011;14785;52.556;13.430;2023-08-07T05:14:58;13.73;;;11.93;;
27293;SDS011;14785;52.556;13.430;2023-08-07T05:17:23;11.90;;;10.80;;
27293;SDS011;14785;52.556;13.430;2023-08-07T05:22:15;11.88;;;10.88;;
27293;SDS011;14785;52.556;13.430;2023-08-07T05:24:42;10.35;;;9.30;;
27293;SDS011;14785;52.556;13.430;2023-08-07T05:29:34;13.52;;;10.13;;
27293;SDS011;14785;52.556;13.430;2023-08-07T05:32:02;18.33;;;13.75;;
27293;SDS011;14785;52.556;13.430;2023-08-07T05:34:29;19.10;;;16.92;;
27293;SDS011;14785;52.556;13.430;2023-08-07T05:36:56;14.77;;;13.40;;
27293;SDS011;14785;52.556;13.430;2023-08-07T05:39:21;26.93;;;25.00;;
27293;SDS011;14785;52.556;13.430;2023-08-07T05:41:46;22.60;;;20.03;;
27293;SDS011;14785;52.556;13.430;2023-08-07T05:44:12;28.70;;;26.50;;
27293;SDS011;14785;52.556;13.430;2023-08-07T05:46:38;22.87;;;20.93;;
27293;SDS011;14785;52.556;13.430;2023-08-07T05:49:04;13.55;;;11.82;;
27293;SDS011;14785;52.556;13.430;2023-08-07T05:51:29;18.03;;;13.63;;
27293;SDS011;14785;52.556;13.430;2023-08-07T05:53:55;12.33;;;11.13;;
27293;SDS011;14785;52.556;13.430;2023-08-07T05:56:20;11.77;;;9.70;;
27293;SDS011;14785;52.556;13.430;2023-08-07T05:58:46;16.15;;;14.75;;
27293;SDS011;14785;52.556;13.430;2023-08-07T06:01:11;13.67;;;12.37;;
27293;SDS011;14785;52.556;13.430;2023-08-07T06:03:37;14.17;;;12.80;;
27293;SDS011;14785;52.556;13.430;2023-08-07T06:06:02;13.63;;;12.53;;
27293;SDS011;14785;52.556;13.430;2023-08-07T06:08:27;14.20;;;12.50;;
27293;SDS011;14785;52.556;13.430;2023-08-07T06:10:55;11.63;;;10.48;;
27293;SDS011;14785;52.556;13.430;2023-08-07T06:13:20;11.15;;;10.15;;
27293;SDS011;14785;52.556;13.430;2023-08-07T06:15:46;16.70;;;15.13;;
27293;SDS011;14785;52.556;13.430;2023-08-07T06:20:37;13.23;;;12.37;;
27293;SDS011;14785;52.556;13.430;2023-08-07T06:23:03;13.30;;;12.20;;
27293;SDS011;14785;52.556;13.430;2023-08-07T06:25:28;15.93;;;14.63;;
27293;SDS011;14785;52.556;13.430;2023-08-07T06:27:54;18.67;;;17.13;;
27293;SDS011;14785;52.556;13.430;2023-08-07T06:30:19;21.27;;;19.03;;
27293;SDS011;14785;52.556;13.430;2023-08-07T06:32:47;22.90;;;20.73;;
27293;SDS011;14785;52.556;13.430;2023-08-07T06:35:13;18.92;;;17.48;;
27293;SDS011;14785;52.556;13.430;2023-08-07T06:37:38;12.83;;;11.80;;
27293;SDS011;14785;52.556;13.430;2023-08-07T06:40:04;11.07;;;10.13;;
27293;SDS011;14785;52.556;13.430;2023-08-07T06:42:30;9.55;;;8.65;;
27293;SDS011;14785;52.556;13.430;2023-08-07T06:44:55;9.00;;;8.23;;
27293;SDS011;14785;52.556;13.430;2023-08-07T06:47:20;9.90;;;9.10;;
27293;SDS011;14785;52.556;13.430;2023-08-07T06:49:46;9.70;;;8.93;;
27293;SDS011;14785;52.556;13.430;2023-08-07T06:52:11;9.77;;;8.90;;
27293;SDS011;14785;52.556;13.430;2023-08-07T06:54:38;7.30;;;6.72;;
27293;SDS011;14785;52.556;13.430;2023-08-07T06:57:03;10.33;;;9.67;;
27293;SDS011;14785;52.556;13.430;2023-08-07T06:59:29;8.37;;;7.67;;
27293;SDS011;14785;52.556;13.430;2023-08-07T07:01:54;9.87;;;8.93;;
27293;SDS011;14785;52.556;13.430;2023-08-07T07:04:20;10.57;;;9.67;;
27293;SDS011;14785;52.556;13.430;2023-08-07T07:06:45;12.60;;;11.63;;
27293;SDS011;14785;52.556;13.430;2023-08-07T07:09:10;9.57;;;8.30;;
27293;SDS011;14785;52.556;13.430;2023-08-07T07:11:41;10.85;;;8.10;;
27293;SDS011;14785;52.556;13.430;2023-08-07T07:14:08;9.97;;;9.03;;
27293;SDS011;14785;52.556;13.430;2023-08-07T07:16:33;8.88;;;8.00;;
27293;SDS011;14785;52.556;13.430;2023-08-07T07:19:02;10.30;;;8.38;;
27293;SDS011;14785;52.556;13.430;2023-08-07T07:21:28;8.83;;;8.03;;
27293;SDS011;14785;52.556;13.430;2023-08-07T07:23:53;12.50;;;11.27;;
27293;SDS011;14785;52.556;13.430;2023-08-07T07:26:19;8.87;;;7.50;;
27293;SDS011;14785;52.556;13.430;2023-08-07T07:28:44;9.20;;;8.60;;
27293;SDS011;14785;52.556;13.430;2023-08-07T07:31:10;12.88;;;11.70;;
27293;SDS011;14785;52.556;13.430;2023-08-07T07:33:36;11.07;;;10.35;;
27293;SDS011;14785;52.556;13.430;2023-08-07T07:36:04;9.05;;;8.35;;
27293;SDS011;14785;52.556;13.430;2023-08-07T07:38:29;10.63;;;8.77;;
27293;SDS011;14785;52.556;13.430;2023-08-07T07:40:55;8.73;;;7.93;;
27293;SDS011;14785;52.556;13.430;2023-08-07T07:43:22;7.45;;;6.85;;
27293;SDS011;14785;52.556;13.430;2023-08-07T07:48:13;9.43;;;8.50;;
27293;SDS011;14785;52.556;13.430;2023-08-07T07:50:38;6.67;;;6.07;;
27293;SDS011;14785;52.556;13.430;2023-08-07T07:53:04;10.83;;;8.87;;
27293;SDS011;14785;52.556;13.430;2023-08-07T07:55:29;10.87;;;9.97;;
27293;SDS011;14785;52.556;13.430;2023-08-07T08:00:22;9.93;;;7.13;;
27293;SDS011;14785;52.556;13.430;2023-08-07T08:02:51;11.35;;;8.18;;
27293;SDS011;14785;52.556;13.430;2023-08-07T08:05:28;7.70;;;7.03;;
27293;SDS011;14785;52.556;13.430;2023-08-07T08:07:53;10.93;;;7.70;;
27293;SDS011;14785;52.556;13.430;2023-08-07T08:10:19;7.87;;;6.50;;
27293;SDS011;14785;52.556;13.430;2023-08-07T08:12:51;12.05;;;9.02;;
27293;SDS011;14785;52.556;13.430;2023-08-07T08:15:16;11.10;;;8.23;;
27293;SDS011;14785;52.556;13.430;2023-08-07T08:17:42;6.63;;;6.13;;
27293;SDS011;14785;52.556;13.430;2023-08-07T08:20:07;7.83;;;7.07;;
27293;SDS011;14785;52.556;13.430;2023-08-07T08:22:33;11.23;;;9.02;;
27293;SDS011;14785;52.556;13.430;2023-08-07T08:24:59;12.60;;;10.47;;
27293;SDS011;14785;52.556;13.430;2023-08-07T08:27:25;8.07;;;6.97;;
27293;SDS011;14785;52.556;13.430;2023-08-07T08:29:52;10.65;;;9.95;;
27293;SDS011;14785;52.556;13.430;2023-08-07T08:32:19;8.27;;;7.50;;
27293;SDS011;14785;52.556;13.430;2023-08-07T08:34:45;7.53;;;6.95;;
27293;SDS011;14785;52.556;13.430;2023-08-07T08:37:10;7.97;;;5.70;;
27293;SDS011;14785;52.556;13.430;2023-08-07T08:39:36;14.63;;;13.30;;
27293;SDS011;14785;52.556;13.430;2023-08-07T08:42:02;13.02;;;9.00;;
27293;SDS011;14785;52.556;13.430;2023-08-07T08:44:28;13.98;;;8.25;;
27293;SDS011;14785;52.556;13.430;2023-08-07T08:46:56;8.57;;;7.82;;
27293;SDS011;14785;52.556;13.430;2023-08-07T08:49:27;8.95;;;7.38;;
27293;SDS011;14785;52.556;13.430;2023-08-07T08:51:57;7.22;;;6.53;;
27293;SDS011;14785;52.556;13.430;2023-08-07T08:54:23;8.75;;;5.68;;
27293;SDS011;14785;52.556;13.430;2023-08-07T08:59:15;8.98;;;8.32;;
27293;SDS011;14785;52.556;13.430;2023-08-07T09:01:43;9.57;;;7.88;;
27293;SDS011;14785;52.556;13.430;2023-08-07T09:04:09;10.02;;;7.68;;
27293;SDS011;14785;52.556;13.430;2023-08-07T09:06:35;8.57;;;6.43;;
27293;SDS011;14785;52.556;13.430;2023-08-07T09:09:02;6.55;;;5.57;;
27293;SDS011;14785;52.556;13.430;2023-08-07T09:11:27;6.07;;;5.47;;
27293;SDS011;14785;52.556;13.430;2023-08-07T09:13:55;7.72;;;5.68;;
27293;SDS011;14785;52.556;13.430;2023-08-07T09:16:23;6.53;;;5.95;;
27293;SDS011;14785;52.556;13.430;2023-08-07T09:18:50;6.75;;;6.18;;
27293;SDS011;14785;52.556;13.430;2023-08-07T09:21:19;7.82;;;6.65;;
27293;SDS011;14785;52.556;13.430;2023-08-07T09:23:47;7.13;;;5.97;;
27293;SDS011;14785;52.556;13.430;2023-08-07T09:26:15;5.88;;;5.20;;
27293;SDS011;14785;52.556;13.430;2023-08-07T09:28:51;7.68;;;6.05;;
27293;SDS011;14785;52.556;13.430;2023-08-07T09:31:23;7.65;;;6.45;;
27293;SDS011;14785;52.556;13.430;2023-08-07T09:34:01;6.80;;;5.72;;
27293;SDS011;14785;52.556;13.430;2023-08-07T09:36:57;7.18;;;6.47;;
27293;SDS011;14785;52.556;13.430;2023-08-07T09:39:23;6.55;;;5.95;;
27293;SDS011;14785;52.556;13.430;2023-08-07T09:42:18;6.72;;;6.20;;
27293;SDS011;14785;52.556;13.430;2023-08-07T09:45:26;7.00;;;6.40;;
27293;SDS011;14785;52.556;13.430;2023-08-07T09:48:02;6.13;;;5.53;;
27293;SDS011;14785;52.556;13.430;2023-08-07T09:53:27;8.07;;;7.28;;
27293;SDS011;14785;52.556;13.430;2023-08-07T09:56:11;7.53;;;6.85;;
27293;SDS011;14785;52.556;13.430;2023-08-07T09:58:39;8.65;;;6.72;;
27293;SDS011;14785;52.556;13.430;2023-08-07T10:01:29;8.55;;;6.72;;
27293;SDS011;14785;52.556;13.430;2023-08-07T10:03:57;5.88;;;5.38;;
27293;SDS011;14785;52.556;13.430;2023-08-07T10:06:26;10.23;;;7.68;;
27293;SDS011;14785;52.556;13.430;2023-08-07T10:08:52;6.53;;;5.90;;
27293;SDS011;14785;52.556;13.430;2023-08-07T10:11:23;10.25;;;6.93;;
27293;SDS011;14785;52.556;13.430;2023-08-07T10:13:51;8.15;;;5.43;;
27293;SDS011;14785;52.556;13.430;2023-08-07T10:16:37;7.15;;;6.63;;
27293;SDS011;14785;52.556;13.430;2023-08-07T10:19:07;9.30;;;8.43;;
27293;SDS011;14785;52.556;13.430;2023-08-07T10:21:45;8.50;;;7.78;;
27293;SDS011;14785;52.556;13.430;2023-08-07T10:24:12;7.50;;;6.80;;
27293;SDS011;14785;52.556;13.430;2023-08-07T10:26:41;6.05;;;5.03;;
27293;SDS011;14785;52.556;13.430;2023-08-07T10:29:23;6.65;;;6.05;;
27293;SDS011;14785;52.556;13.430;2023-08-07T10:31:59;7.60;;;5.00;;
27293;SDS011;14785;52.556;13.430;2023-08-07T10:34:33;6.87;;;6.07;;
27293;SDS011;14785;52.556;13.430;2023-08-07T10:37:02;6.00;;;5.50;;
27293;SDS011;14785;52.556;13.430;2023-08-07T10:39:34;6.55;;;5.78;;
27293;SDS011;14785;52.556;13.430;2023-08-07T10:42:03;5.20;;;4.70;;
27293;SDS011;14785;52.556;13.430;2023-08-07T10:44:31;6.15;;;5.65;;
27293;SDS011;14785;52.556;13.430;2023-08-07T10:46:57;4.75;;;4.35;;
27293;SDS011;14785;52.556;13.430;2023-08-07T10:49:38;6.13;;;5.57;;
27293;SDS011;14785;52.556;13.430;2023-08-07T10:52:12;6.10;;;5.53;;
27293;SDS011;14785;52.556;13.430;2023-08-07T10:54:46;5.60;;;5.03;;
27293;SDS011;14785;52.556;13.430;2023-08-07T10:57:13;6.97;;;6.53;;
27293;SDS011;14785;52.556;13.430;2023-08-07T11:02:21;7.95;;;7.22;;
27293;SDS011;14785;52.556;13.430;2023-08-07T11:04:49;7.45;;;6.78;;
27293;SDS011;14785;52.556;13.430;2023-08-07T11:07:25;6.75;;;6.25;;
27293;SDS011;14785;52.556;13.430;2023-08-07T11:09:51;6.95;;;6.25;;
27293;SDS011;14785;52.556;13.430;2023-08-07T11:12:17;5.85;;;5.38;;
27293;SDS011;14785;52.556;13.430;2023-08-07T11:14:44;6.25;;;5.78;;
27293;SDS011;14785;52.556;13.430;2023-08-07T11:17:09;13.82;;;12.85;;
27293;SDS011;14785;52.556;13.430;2023-08-07T11:22:01;13.10;;;11.88;;
27293;SDS011;14785;52.556;13.430;2023-08-07T11:24:27;9.33;;;6.30;;
27293;SDS011;14785;52.556;13.430;2023-08-07T11:26:53;13.47;;;12.63;;
27293;SDS011;14785;52.556;13.430;2023-08-07T11:29:20;10.35;;;7.35;;
27293;SDS011;14785;52.556;13.430;2023-08-07T11:31:47;10.13;;;6.68;;
27293;SDS011;14785;52.556;13.430;2023-08-07T11:34:13;10.20;;;9.30;;
27293;SDS011;14785;52.556;13.430;2023-08-07T11:36:41;11.20;;;10.20;;
27293;SDS011;14785;52.556;13.430;2023-08-07T11:39:08;11.05;;;8.15;;
27293;SDS011;14785;52.556;13.430;2023-08-07T11:41:33;8.63;;;6.57;;
27293;SDS011;14785;52.556;13.430;2023-08-07T11:43:58;9.13;;;8.30;;
27293;SDS011;14785;52.556;13.430;2023-08-07T11:46:24;8.27;;;6.75;;
27293;SDS011;14785;52.556;13.430;2023-08-07T11:48:51;9.10;;;6.60;;
27293;SDS011;14785;52.556;13.430;2023-08-07T11:51:17;6.07;;;5.45;;
27293;SDS011;14785;52.556;13.430;2023-08-07T11:53:47;8.65;;;6.00;;
27293;SDS011;14785;52.556;13.430;2023-08-07T11:56:13;6.20;;;5.53;;
27293;SDS011;14785;52.556;13.430;2023-08-07T11:58:45;9.18;;;7.95;;
27293;SDS011;14785;52.556;13.430;2023-08-07T12:01:13;11.15;;;10.23;;
27293;SDS011;14785;52.556;13.430;2023-08-07T12:03:49;8.00;;;7.10;;
27293;SDS011;14785;52.556;13.430;2023-08-07T12:06:35;10.45;;;9.55;;
27293;SDS011;14785;52.556;13.430;2023-08-07T12:09:02;7.72;;;7.03;;
27293;SDS011;14785;52.556;13.430;2023-08-07T12:11:36;7.25;;;6.60;;
27293;SDS011;14785;52.556;13.430;2023-08-07T12:14:01;7.47;;;6.87;;
27293;SDS011;14785;52.556;13.430;2023-08-07T12:16:31;6.27;;;5.27;;
27293;SDS011;14785;52.556;13.430;2023-08-07T12:18:59;8.02;;;5.60;;
27293;SDS011;14785;52.556;13.430;2023-08-07T12:21:25;9.95;;;6.93;;
27293;SDS011;14785;52.556;13.430;2023-08-07T12:23:54;9.73;;;5.38;;
27293;SDS011;14785;52.556;13.430;2023-08-07T12:26:20;7.18;;;5.60;;
27293;SDS011;14785;52.556;13.430;2023-08-07T12:28:46;9.07;;;8.27;;
27293;SDS011;14785;52.556;13.430;2023-08-07T12:31:13;5.28;;;4.88;;
27293;SDS011;14785;52.556;13.430;2023-08-07T12:33:38;8.67;;;6.07;;
27293;SDS011;14785;52.556;13.430;2023-08-07T12:36:03;9.93;;;6.90;;
27293;SDS011;14785;52.556;13.430;2023-08-07T12:38:29;17.17;;;5.80;;
27293;SDS011;14785;52.556;13.430;2023-08-07T12:40:55;12.23;;;7.75;;
27293;SDS011;14785;52.556;13.430;2023-08-07T12:43:21;11.33;;;6.53;;
27293;SDS011;14785;52.556;13.430;2023-08-07T12:48:13;7.13;;;6.28;;
27293;SDS011;14785;52.556;13.430;2023-08-07T12:50:40;7.72;;;6.35;;
27293;SDS011;14785;52.556;13.430;2023-08-07T12:53:06;7.25;;;5.95;;
27293;SDS011;14785;52.556;13.430;2023-08-07T12:55:32;18.92;;;6.97;;
27293;SDS011;14785;52.556;13.430;2023-08-07T12:57:57;16.80;;;6.80;;
27293;SDS011;14785;52.556;13.430;2023-08-07T13:00:23;8.37;;;6.60;;
27293;SDS011;14785;52.556;13.430;2023-08-07T13:02:50;18.02;;;8.20;;
27293;SDS011;14785;52.556;13.430;2023-08-07T13:05:16;7.47;;;6.47;;
27293;SDS011;14785;52.556;13.430;2023-08-07T13:07:43;10.63;;;6.05;;
27293;SDS011;14785;52.556;13.430;2023-08-07T13:10:10;7.50;;;6.63;;
27293;SDS011;14785;52.556;13.430;2023-08-07T13:12:39;8.63;;;6.47;;
27293;SDS011;14785;52.556;13.430;2023-08-07T13:15:09;9.38;;;5.05;;
27293;SDS011;14785;52.556;13.430;2023-08-07T13:17:37;10.23;;;6.07;;
27293;SDS011;14785;52.556;13.430;2023-08-07T13:20:03;7.53;;;5.73;;
27293;SDS011;14785;52.556;13.430;2023-08-07T13:22:35;12.63;;;5.75;;
27293;SDS011;14785;52.556;13.430;2023-08-07T13:25:01;7.38;;;6.43;;
27293;SDS011;14785;52.556;13.430;2023-08-07T13:27:30;11.27;;;6.43;;
27293;SDS011;14785;52.556;13.430;2023-08-07T13:32:21;11.00;;;7.05;;
27293;SDS011;14785;52.556;13.430;2023-08-07T13:34:46;6.70;;;5.20;;
27293;SDS011;14785;52.556;13.430;2023-08-07T13:37:13;8.80;;;5.55;;
27293;SDS011;14785;52.556;13.430;2023-08-07T13:39:40;13.57;;;8.85;;
27293;SDS011;14785;52.556;13.430;2023-08-07T13:42:05;7.15;;;5.95;;
27293;SDS011;14785;52.556;13.430;2023-08-07T13:44:31;10.73;;;6.95;;
27293;SDS011;14785;52.556;13.430;2023-08-07T13:46:58;6.13;;;5.07;;
27293;SDS011;14785;52.556;13.430;2023-08-07T13:49:24;9.88;;;5.25;;
27293;SDS011;14785;52.556;13.430;2023-08-07T13:51:50;12.10;;;5.57;;
27293;SDS011;14785;52.556;13.430;2023-08-07T13:54:15;11.93;;;5.65;;
27293;SDS011;14785;52.556;13.430;2023-08-07T13:56:42;13.67;;;5.53;;
27293;SDS011;14785;52.556;13.430;2023-08-07T13:59:07;8.32;;;5.35;;
27293;SDS011;14785;52.556;13.430;2023-08-07T14:01:35;9.77;;;5.63;;
27293;SDS011;14785;52.556;13.430;2023-08-07T14:04:02;10.25;;;5.65;;
27293;SDS011;14785;52.556;13.430;2023-08-07T14:06:27;12.73;;;6.47;;
27293;SDS011;14785;52.556;13.430;2023-08-07T14:08:53;6.35;;;5.30;;
27293;SDS011;14785;52.556;13.430;2023-08-07T14:11:19;14.33;;;6.30;;
27293;SDS011;14785;52.556;13.430;2023-08-07T14:13:45;7.75;;;5.20;;
27293;SDS011;14785;52.556;13.430;2023-08-07T14:18:36;9.00;;;5.47;;
27293;SDS011;14785;52.556;13.430;2023-08-07T14:21:02;10.32;;;5.30;;
27293;SDS011;14785;52.556;13.430;2023-08-07T14:23:29;11.37;;;5.30;;
27293;SDS011;14785;52.556;13.430;2023-08-07T14:25:55;8.05;;;5.82;;
27293;SDS011;14785;52.556;13.430;2023-08-07T14:28:20;10.13;;;5.40;;
27293;SDS011;14785;52.556;13.430;2023-08-07T14:30:47;12.77;;;5.80;;
27293;SDS011;14785;52.556;13.430;2023-08-07T14:33:12;8.70;;;6.10;;
27293;SDS011;14785;52.556;13.430;2023-08-07T14:35:38;9.93;;;6.10;;
27293;SDS011;14785;52.556;13.430;2023-08-07T14:38:03;10.73;;;5.57;;
27293;SDS011;14785;52.556;13.430;2023-08-07T14:40:29;12.00;;;7.30;;
27293;SDS011;14785;52.556;13.430;2023-08-07T14:42:55;10.98;;;5.82;;
27293;SDS011;14785;52.556;13.430;2023-08-07T14:45:21;9.10;;;4.90;;
27293;SDS011;14785;52.556;13.430;2023-08-07T14:47:48;10.75;;;5.68;;
27293;SDS011;14785;52.556;13.430;2023-08-07T14:50:14;7.53;;;5.67;;
27293;SDS011;14785;52.556;13.430;2023-08-07T14:52:41;11.77;;;5.53;;
27293;SDS011;14785;52.556;13.430;2023-08-07T14:55:08;9.27;;;5.18;;
27293;SDS011;14785;52.556;13.430;2023-08-07T14:57:34;9.73;;;5.45;;
27293;SDS011;14785;52.556;13.430;2023-08-07T14:59:59;10.98;;;5.38;;
27293;SDS011;14785;52.556;13.430;2023-08-07T15:02:30;9.27;;;5.78;;
27293;SDS011;14785;52.556;13.430;2023-08-07T15:04:56;11.40;;;5.87;;
27293;SDS011;14785;52.556;13.430;2023-08-07T15:07:21;7.93;;;5.33;;
27293;SDS011;14785;52.556;13.430;2023-08-07T15:09:48;10.70;;;5.77;;